createdAt,value
2023-04-15T00:01:12.137Z,96432.00
2023-04-15T00:03:39.699Z,96435.00
2023-04-15T00:06:07.023Z,96430.00
2023-04-15T00:08:34.321Z,96438.00
2023-04-15T00:11:05.933Z,96431.00
2023-04-15T00:13:34.185Z,96436.00
2023-04-15T00:18:43.167Z,96424.00
2023-04-15T00:21:10.372Z,96432.00
2023-04-15T00:23:37.506Z,96425.00
2023-04-15T00:26:04.579Z,96426.00
2023-04-15T00:28:32.277Z,96423.00
2023-04-15T00:30:59.488Z,96417.00
2023-04-15T00:33:26.720Z,96415.00
2023-04-15T00:35:53.866Z,96409.00
2023-04-15T00:38:21.211Z,96411.00
2023-04-15T00:40:48.469Z,96406.00
2023-04-15T00:43:16.478Z,96408.00
2023-04-15T00:45:43.648Z,96411.00
2023-04-15T00:48:11.763Z,96411.00
2023-04-15T00:50:39.024Z,96411.00
2023-04-15T00:53:06.227Z,96402.00
2023-04-15T00:55:33.331Z,96411.00
2023-04-15T00:58:02.215Z,96411.00
2023-04-15T01:00:30.480Z,96406.00
2023-04-15T01:02:57.852Z,96405.00
2023-04-15T01:05:25.166Z,96415.00
2023-04-15T01:07:52.202Z,96414.00
2023-04-15T01:10:19.405Z,96408.00
2023-04-15T01:12:46.978Z,96419.00
2023-04-15T01:15:14.833Z,96408.00
2023-04-15T01:17:42.232Z,96417.00
2023-04-15T01:20:12.655Z,96412.00
2023-04-15T01:22:40.770Z,96403.00
2023-04-15T01:25:13.214Z,96409.00
2023-04-15T01:27:42.489Z,96404.00
2023-04-15T01:30:10.647Z,96410.00
2023-04-15T01:32:38.294Z,96401.00
2023-04-15T01:35:06.019Z,96402.00
2023-04-15T01:37:33.391Z,96385.00
2023-04-15T01:40:00.532Z,96403.00
2023-04-15T01:42:27.914Z,96393.00
2023-04-15T01:44:55.069Z,96389.00
2023-04-15T01:47:22.585Z,96397.00
2023-04-15T01:49:49.789Z,96402.00
2023-04-15T01:52:16.898Z,96393.00
2023-04-15T01:54:44.422Z,96400.00
2023-04-15T01:57:11.612Z,96400.00
2023-04-15T01:59:38.707Z,96394.00
2023-04-15T02:02:05.818Z,96392.00
2023-04-15T02:04:32.990Z,96390.00
2023-04-15T02:07:00.843Z,96393.00
2023-04-15T02:09:28.031Z,96387.00
2023-04-15T02:11:55.221Z,96403.00
2023-04-15T02:14:22.374Z,96391.00
2023-04-15T02:16:49.515Z,96394.00
2023-04-15T02:19:16.798Z,96390.00
2023-04-15T02:21:43.844Z,96395.00
2023-04-15T02:24:12.244Z,96390.00
2023-04-15T02:26:39.641Z,96384.00
2023-04-15T02:29:06.872Z,96385.00
2023-04-15T02:31:37.201Z,96384.00
2023-04-15T02:34:04.720Z,96389.00
2023-04-15T02:36:32.149Z,96392.00
2023-04-15T02:38:59.506Z,96393.00
2023-04-15T02:41:29.589Z,96390.00
2023-04-15T02:43:57.335Z,96396.00
2023-04-15T02:46:24.550Z,96398.00
2023-04-15T02:48:53.381Z,96389.00
2023-04-15T02:51:22.779Z,96399.00
2023-04-15T02:53:50.776Z,96390.00
2023-04-15T02:56:19.471Z,96395.00
2023-04-15T02:58:46.825Z,96385.00
2023-04-15T03:01:14.685Z,96391.00
2023-04-15T03:03:42.092Z,96388.00
2023-04-15T03:06:09.553Z,96390.00
2023-04-15T03:08:37.188Z,96392.00
2023-04-15T03:11:05.232Z,96397.00
2023-04-15T03:13:32.342Z,96386.00
2023-04-15T03:15:59.534Z,96394.00
2023-04-15T03:18:26.678Z,96393.00
2023-04-15T03:20:53.798Z,96381.00
2023-04-15T03:23:20.883Z,96382.00
2023-04-15T03:25:47.934Z,96389.00
2023-04-15T03:28:14.985Z,96389.00
2023-04-15T03:30:42.293Z,96388.00
2023-04-15T03:33:09.399Z,96389.00
2023-04-15T03:35:36.494Z,96387.00
2023-04-15T03:38:03.727Z,96389.00
2023-04-15T03:40:30.880Z,96378.00
2023-04-15T03:42:57.925Z,96375.00
2023-04-15T03:45:25.624Z,96382.00
2023-04-15T03:47:52.848Z,96380.00
2023-04-15T03:50:19.980Z,96384.00
2023-04-15T03:52:47.898Z,96387.00
2023-04-15T03:55:15.934Z,96381.00
2023-04-15T03:57:43.035Z,96384.00
2023-04-15T04:00:10.810Z,96380.00
2023-04-15T04:02:38.229Z,96381.00
2023-04-15T04:05:05.712Z,96376.00
2023-04-15T04:07:32.796Z,96377.00
2023-04-15T04:09:59.866Z,96379.00
2023-04-15T04:12:27.033Z,96381.00
2023-04-15T04:14:54.050Z,96392.00
2023-04-15T04:17:21.136Z,96390.00
2023-04-15T04:19:48.236Z,96384.00
2023-04-15T04:22:15.743Z,96378.00
2023-04-15T04:24:42.810Z,96387.00
2023-04-15T04:27:09.820Z,96395.00
2023-04-15T04:29:37.001Z,96387.00
2023-04-15T04:32:04.338Z,96387.00
2023-04-15T04:34:32.571Z,96408.00
2023-04-15T04:37:00.045Z,96399.00
2023-04-15T04:39:27.109Z,96397.00
2023-04-15T04:41:54.250Z,96401.00
2023-04-15T04:44:21.413Z,96411.00
2023-04-15T04:46:48.465Z,96400.00
2023-04-15T04:49:15.576Z,96402.00
2023-04-15T04:51:42.801Z,96408.00
2023-04-15T04:54:09.931Z,96414.00
2023-04-15T04:56:38.990Z,96407.00
2023-04-15T04:59:07.107Z,96405.00
2023-04-15T05:01:34.482Z,96414.00
2023-04-15T05:04:02.017Z,96409.00
2023-04-15T05:06:30.684Z,96415.00
2023-04-15T05:08:58.075Z,96418.00
2023-04-15T05:11:25.335Z,96415.00
2023-04-15T05:13:52.556Z,96414.00
2023-04-15T05:16:20.663Z,96418.00
2023-04-15T05:18:47.950Z,96416.00
2023-04-15T05:21:15.250Z,96417.00
2023-04-15T05:23:42.578Z,96413.00
2023-04-15T05:26:10.136Z,96415.00
2023-04-15T05:28:37.913Z,96408.00
2023-04-15T05:31:05.290Z,96418.00
2023-04-15T05:33:32.462Z,96426.00
2023-04-15T05:35:59.512Z,96412.00
2023-04-15T05:38:27.158Z,96428.00
2023-04-15T05:40:54.274Z,96425.00
2023-04-15T05:43:21.670Z,96417.00
2023-04-15T05:45:48.744Z,96425.00
2023-04-15T05:48:15.845Z,96416.00
2023-04-15T05:50:43.358Z,96426.00
2023-04-15T05:53:10.889Z,96423.00
2023-04-15T05:55:37.964Z,96420.00
2023-04-15T05:58:05.117Z,96422.00
2023-04-15T06:00:32.312Z,96428.00
2023-04-15T06:03:00.095Z,96433.00
2023-04-15T06:05:27.886Z,96434.00
2023-04-15T06:07:55.068Z,96434.00
2023-04-15T06:10:22.139Z,96433.00
2023-04-15T06:12:49.256Z,96436.00
2023-04-15T06:15:17.203Z,96446.00
2023-04-15T06:17:44.347Z,96450.00
2023-04-15T06:20:12.583Z,96447.00
2023-04-15T06:22:39.631Z,96453.00
2023-04-15T06:25:09.330Z,96459.00
2023-04-15T06:27:36.597Z,96462.00
2023-04-15T06:30:04.826Z,96459.00
2023-04-15T06:32:33.127Z,96462.00
2023-04-15T06:35:00.573Z,96464.00
2023-04-15T06:37:27.679Z,96468.00
2023-04-15T06:39:54.755Z,96466.00
2023-04-15T06:42:21.914Z,96485.00
2023-04-15T06:44:49.235Z,96468.00
2023-04-15T06:47:16.491Z,96473.00
2023-04-15T06:49:43.680Z,96484.00
2023-04-15T06:52:11.464Z,96473.00
2023-04-15T06:54:38.645Z,96478.00
2023-04-15T06:57:07.524Z,96478.00
2023-04-15T06:59:34.675Z,96483.00
2023-04-15T07:02:02.204Z,96485.00
2023-04-15T07:04:29.461Z,96485.00
2023-04-15T07:06:57.019Z,96479.00
2023-04-15T07:09:24.949Z,96483.00
2023-04-15T07:11:52.592Z,96488.00
2023-04-15T07:14:19.799Z,96487.00
2023-04-15T07:16:47.294Z,96487.00
2023-04-15T07:19:14.445Z,96484.00
2023-04-15T07:21:41.997Z,96479.00
2023-04-15T07:24:10.532Z,96493.00
2023-04-15T07:26:37.618Z,96485.00
2023-04-15T07:29:04.706Z,96480.00
2023-04-15T07:31:31.925Z,96505.00
2023-04-15T07:33:59.878Z,96504.00
2023-04-15T07:36:26.935Z,96507.00
2023-04-15T07:38:55.420Z,96497.00
2023-04-15T07:41:24.032Z,96498.00
2023-04-15T07:43:51.097Z,96498.00
2023-04-15T07:46:18.471Z,96497.00
2023-04-15T07:48:45.507Z,96506.00
2023-04-15T07:51:13.125Z,96503.00
2023-04-15T07:53:40.344Z,96504.00
2023-04-15T07:56:07.711Z,96510.00
2023-04-15T07:58:34.736Z,96501.00
2023-04-15T08:01:02.167Z,96508.00
2023-04-15T08:03:29.471Z,96509.00
2023-04-15T08:05:56.680Z,96514.00
2023-04-15T08:08:24.016Z,96507.00
2023-04-15T08:10:52.791Z,96512.00
2023-04-15T08:13:21.161Z,96507.00
2023-04-15T08:16:16.253Z,96514.00
2023-04-15T08:18:43.469Z,96500.00
2023-04-15T08:21:11.660Z,96516.00
2023-04-15T08:23:39.522Z,96521.00
2023-04-15T08:26:06.847Z,96516.00
2023-04-15T08:28:33.913Z,96521.00
2023-04-15T08:31:01.418Z,96518.00
2023-04-15T08:33:29.047Z,96528.00
2023-04-15T08:35:56.095Z,96534.00
2023-04-15T08:38:23.921Z,96521.00
2023-04-15T08:40:51.287Z,96524.00
2023-04-15T08:43:26.653Z,96525.00
2023-04-15T08:45:55.093Z,96527.00
2023-04-15T08:48:24.704Z,96529.00
2023-04-15T08:50:52.258Z,96524.00
2023-04-15T08:53:21.620Z,96520.00
2023-04-15T08:55:52.915Z,96523.00
2023-04-15T08:58:20.513Z,96519.00
2023-04-15T09:00:48.870Z,96533.00
2023-04-15T09:03:17.817Z,96533.00
2023-04-15T09:05:45.423Z,96527.00
2023-04-15T09:08:12.751Z,96528.00
2023-04-15T09:10:39.906Z,96532.00
2023-04-15T09:13:07.256Z,96535.00
2023-04-15T09:15:38.521Z,96543.00
2023-04-15T09:18:07.030Z,96538.00
2023-04-15T09:20:42.804Z,96534.00
2023-04-15T09:23:15.441Z,96543.00
2023-04-15T09:25:42.900Z,96542.00
2023-04-15T09:28:11.385Z,96543.00
2023-04-15T09:30:38.774Z,96553.00
2023-04-15T09:33:08.644Z,96555.00
2023-04-15T09:35:36.848Z,96553.00
2023-04-15T09:38:09.904Z,96558.00
2023-04-15T09:40:42.269Z,96562.00
2023-04-15T09:43:13.015Z,96561.00
2023-04-15T09:45:53.669Z,96561.00
2023-04-15T09:48:29.116Z,96559.00
2023-04-15T09:50:59.480Z,96554.00
2023-04-15T09:53:27.560Z,96551.00
2023-04-15T09:56:03.149Z,96567.00
2023-04-15T09:58:33.808Z,96560.00
2023-04-15T10:01:04.343Z,96560.00
2023-04-15T10:03:35.566Z,96564.00
2023-04-15T10:06:04.120Z,96561.00
2023-04-15T10:08:35.164Z,96564.00
2023-04-15T10:11:03.395Z,96551.00
2023-04-15T10:13:37.282Z,96551.00
2023-04-15T10:16:15.957Z,96569.00
2023-04-15T10:18:56.465Z,96564.00
2023-04-15T10:21:23.805Z,96559.00
2023-04-15T10:23:51.650Z,96565.00
2023-04-15T10:26:18.957Z,96559.00
2023-04-15T10:28:48.355Z,96563.00
2023-04-15T10:31:16.308Z,96569.00
2023-04-15T10:33:46.304Z,96565.00
2023-04-15T10:36:13.956Z,96564.00
2023-04-15T10:38:46.836Z,96571.00
2023-04-15T10:41:28.239Z,96573.00
2023-04-15T10:44:05.030Z,96572.00
2023-04-15T10:46:44.471Z,96579.00
2023-04-15T10:49:17.343Z,96580.00
2023-04-15T10:51:53.114Z,96569.00
2023-04-15T10:54:26.589Z,96584.00
2023-04-15T10:57:14.165Z,96576.00
2023-04-15T11:00:11.482Z,96581.00
2023-04-15T11:02:56.966Z,96590.00
2023-04-15T11:05:52.347Z,96590.00
2023-04-15T11:08:20.675Z,96579.00
2023-04-15T11:10:47.796Z,96594.00
2023-04-15T11:13:22.988Z,96587.00
2023-04-15T11:15:52.048Z,96595.00
2023-04-15T11:18:26.161Z,96602.00
2023-04-15T11:21:05.476Z,96604.00
2023-04-15T11:23:47.018Z,96598.00
2023-04-15T11:26:14.976Z,96594.00
2023-04-15T11:28:45.014Z,96598.00
2023-04-15T11:31:16.883Z,96601.00
2023-04-15T11:33:59.875Z,96603.00
2023-04-15T11:36:32.179Z,96599.00
2023-04-15T11:39:00.551Z,96603.00
2023-04-15T11:41:27.789Z,96599.00
2023-04-15T11:43:54.909Z,96601.00
2023-04-15T11:46:28.685Z,96603.00
2023-04-15T11:48:55.870Z,96610.00
2023-04-15T11:51:22.932Z,96616.00
2023-04-15T11:53:52.099Z,96619.00
2023-04-15T11:56:25.587Z,96610.00
2023-04-15T11:58:57.217Z,96618.00
2023-04-15T12:01:42.522Z,96622.00
2023-04-15T12:04:27.866Z,96629.00
2023-04-15T12:06:56.512Z,96622.00
2023-04-15T12:09:23.940Z,96628.00
2023-04-15T12:11:55.741Z,96637.00
2023-04-15T12:14:28.578Z,96624.00
2023-04-15T12:17:02.249Z,96633.00
2023-04-15T12:19:32.923Z,96630.00
2023-04-15T12:22:06.856Z,96632.00
2023-04-15T12:24:36.013Z,96631.00
2023-04-15T12:27:15.759Z,96635.00
2023-04-15T12:29:44.250Z,96643.00
2023-04-15T12:32:14.363Z,96648.00
2023-04-15T12:34:52.715Z,96653.00
2023-04-15T12:37:20.391Z,96650.00
2023-04-15T12:39:50.092Z,96653.00
2023-04-15T12:42:18.568Z,96658.00
2023-04-15T12:44:47.072Z,96664.00
2023-04-15T12:47:14.807Z,96672.00
2023-04-15T12:49:42.350Z,96674.00
2023-04-15T12:52:09.883Z,96666.00
2023-04-15T12:54:37.560Z,96665.00
2023-04-15T12:57:07.134Z,96671.00
2023-04-15T12:59:36.038Z,96673.00
2023-04-15T13:02:04.341Z,96671.00
2023-04-15T13:04:32.113Z,96662.00
2023-04-15T13:06:59.417Z,96676.00
2023-04-15T13:09:27.196Z,96675.00
2023-04-15T13:11:54.652Z,96673.00
2023-04-15T13:14:22.251Z,96681.00
2023-04-15T13:16:49.272Z,96684.00
2023-04-15T13:19:16.698Z,96687.00
2023-04-15T13:21:44.021Z,96690.00
2023-04-15T13:24:11.409Z,96687.00
2023-04-15T13:26:38.713Z,96688.00
2023-04-15T13:29:06.218Z,96688.00
2023-04-15T13:31:33.678Z,96692.00
2023-04-15T13:34:01.063Z,96695.00
2023-04-15T13:36:28.135Z,96696.00
2023-04-15T13:38:55.636Z,96699.00
2023-04-15T13:41:23.431Z,96709.00
2023-04-15T13:43:50.733Z,96701.00
2023-04-15T13:46:18.125Z,96695.00
2023-04-15T13:48:45.476Z,96701.00
2023-04-15T13:51:12.810Z,96703.00
2023-04-15T13:53:40.007Z,96701.00
2023-04-15T13:56:08.827Z,96700.00
2023-04-15T13:58:37.549Z,96710.00
2023-04-15T14:01:07.073Z,96712.00
2023-04-15T14:03:36.799Z,96702.00
2023-04-15T14:06:05.784Z,96709.00
2023-04-15T14:08:33.380Z,96704.00
2023-04-15T14:11:00.794Z,96705.00
2023-04-15T14:13:28.040Z,96713.00
2023-04-15T14:15:55.498Z,96726.00
2023-04-15T14:18:22.849Z,96722.00
2023-04-15T14:20:50.185Z,96720.00
2023-04-15T14:23:17.358Z,96726.00
2023-04-15T14:25:46.717Z,96732.00
2023-04-15T14:28:15.580Z,96732.00
2023-04-15T14:30:42.945Z,96727.00
2023-04-15T14:33:10.289Z,96736.00
2023-04-15T14:35:38.112Z,96742.00
2023-04-15T14:38:06.244Z,96747.00
2023-04-15T14:40:34.239Z,96747.00
2023-04-15T14:43:01.412Z,96746.00
2023-04-15T14:45:28.835Z,96748.00
2023-04-15T14:47:56.288Z,96755.00
2023-04-15T14:50:23.568Z,96757.00
2023-04-15T14:52:50.805Z,96755.00
2023-04-15T14:55:17.993Z,96754.00
2023-04-15T14:57:45.242Z,96753.00
2023-04-15T15:00:15.847Z,96758.00
2023-04-15T15:02:43.999Z,96758.00
2023-04-15T15:05:12.298Z,96760.00
2023-04-15T15:07:41.152Z,96766.00
2023-04-15T15:10:08.840Z,96762.00
2023-04-15T15:12:36.401Z,96765.00
2023-04-15T15:15:12.390Z,96770.00
2023-04-15T15:17:43.453Z,96773.00
2023-04-15T15:20:11.057Z,96777.00
2023-04-15T15:22:38.353Z,96784.00
2023-04-15T15:25:06.534Z,96791.00
2023-04-15T15:27:35.063Z,96786.00
2023-04-15T15:30:04.942Z,96795.00
2023-04-15T15:32:32.206Z,96794.00
2023-04-15T15:34:59.312Z,96789.00
2023-04-15T15:37:26.705Z,96790.00
2023-04-15T15:39:53.904Z,96798.00
2023-04-15T15:42:21.203Z,96802.00
2023-04-15T15:44:49.461Z,96811.00
2023-04-15T15:47:17.239Z,96818.00
2023-04-15T15:49:44.781Z,96815.00
2023-04-15T15:52:12.570Z,96818.00
2023-04-15T15:54:43.197Z,96821.00
2023-04-15T15:57:10.977Z,96813.00
2023-04-15T15:59:43.782Z,96822.00
2023-04-15T16:02:13.328Z,96827.00
2023-04-15T16:04:41.128Z,96837.00
2023-04-15T16:07:08.384Z,96833.00
2023-04-15T16:09:35.771Z,96834.00
2023-04-15T16:12:04.294Z,96844.00
2023-04-15T16:14:32.168Z,96849.00
2023-04-15T16:16:59.483Z,96842.00
2023-04-15T16:19:26.655Z,96852.00
2023-04-15T16:21:54.386Z,96852.00
2023-04-15T16:24:21.704Z,96847.00
2023-04-15T16:26:48.961Z,96857.00
2023-04-15T16:29:16.500Z,96862.00
2023-04-15T16:31:43.789Z,96866.00
2023-04-15T16:34:12.114Z,96871.00
2023-04-15T16:36:40.797Z,96871.00
2023-04-15T16:39:08.002Z,96868.00
2023-04-15T16:41:35.415Z,96874.00
2023-04-15T16:44:03.560Z,96880.00
2023-04-15T16:46:31.498Z,96879.00
2023-04-15T16:48:58.857Z,96876.00
2023-04-15T16:51:26.665Z,96885.00
2023-04-15T16:53:53.899Z,96890.00
2023-04-15T16:56:22.283Z,96901.00
2023-04-15T16:58:49.395Z,96908.00
2023-04-15T17:01:16.966Z,96907.00
2023-04-15T17:03:44.813Z,96909.00
2023-04-15T17:06:12.319Z,96910.00
2023-04-15T17:08:40.328Z,96906.00
2023-04-15T17:11:07.626Z,96910.00
2023-04-15T17:13:34.921Z,96916.00
2023-04-15T17:16:02.668Z,96922.00
2023-04-15T17:18:30.136Z,96925.00
2023-04-15T17:20:57.634Z,96920.00
2023-04-15T17:23:27.249Z,96938.00
2023-04-15T17:25:54.577Z,96937.00
2023-04-15T17:28:21.797Z,96942.00
2023-04-15T17:30:49.273Z,96945.00
2023-04-15T17:33:58.014Z,96946.00
2023-04-15T17:36:04.217Z,96950.00
2023-04-15T17:38:31.412Z,96961.00
2023-04-15T17:40:59.162Z,96966.00
2023-04-15T17:43:26.277Z,96964.00
2023-04-15T17:45:53.560Z,96974.00
2023-04-15T17:48:20.843Z,96971.00
2023-04-15T17:50:49.810Z,96979.00
2023-04-15T17:53:18.386Z,96980.00
2023-04-15T17:55:46.549Z,96993.00
2023-04-15T17:58:13.860Z,97004.00
2023-04-15T18:00:41.143Z,97000.00
2023-04-15T18:03:08.497Z,97004.00
2023-04-15T18:05:35.715Z,97004.00
2023-04-15T18:08:02.970Z,97010.00
2023-04-15T18:10:30.096Z,97013.00
2023-04-15T18:12:57.377Z,97005.00
2023-04-15T18:15:24.538Z,97021.00
2023-04-15T18:17:52.100Z,97024.00
2023-04-15T18:20:19.559Z,97032.00
2023-04-15T18:22:46.978Z,97031.00
2023-04-15T18:25:14.301Z,97037.00
2023-04-15T18:27:41.678Z,97041.00
2023-04-15T18:30:11.326Z,97039.00
2023-04-15T18:32:39.604Z,97044.00
2023-04-15T18:35:07.843Z,97061.00
2023-04-15T18:37:34.960Z,97059.00
2023-04-15T18:40:02.295Z,97060.00
2023-04-15T18:42:29.488Z,97062.00
2023-04-15T18:44:56.622Z,97060.00
2023-04-15T18:47:27.145Z,97059.00
2023-04-15T18:49:54.620Z,97069.00
2023-04-15T18:52:21.950Z,97067.00
2023-04-15T18:54:49.288Z,97077.00
2023-04-15T18:57:23.462Z,97075.00
2023-04-15T18:59:58.276Z,97087.00
2023-04-15T19:02:25.470Z,97079.00
2023-04-15T19:04:52.782Z,97093.00
2023-04-15T19:07:20.041Z,97098.00
2023-04-15T19:09:47.157Z,97100.00
2023-04-15T19:12:14.253Z,97100.00
2023-04-15T19:14:41.803Z,97102.00
2023-04-15T19:17:08.866Z,97098.00
2023-04-15T19:19:35.878Z,97111.00
2023-04-15T19:22:03.586Z,97112.00
2023-04-15T19:24:33.908Z,97113.00
2023-04-15T19:27:01.768Z,97121.00
2023-04-15T19:29:29.032Z,97125.00
2023-04-15T19:31:56.215Z,97131.00
2023-04-15T19:34:24.969Z,97128.00
2023-04-15T19:36:52.084Z,97132.00
2023-04-15T19:39:19.780Z,97135.00
2023-04-15T19:41:47.279Z,97134.00
2023-04-15T19:44:14.504Z,97142.00
2023-04-15T19:46:44.858Z,97143.00
2023-04-15T19:49:12.431Z,97150.00
2023-04-15T19:51:39.565Z,97147.00
2023-04-15T19:54:06.589Z,97149.00
2023-04-15T19:56:34.535Z,97147.00
2023-04-15T19:59:02.218Z,97158.00
2023-04-15T20:01:29.882Z,97164.00
2023-04-15T20:03:57.222Z,97152.00
2023-04-15T20:06:24.452Z,97157.00
2023-04-15T20:08:52.083Z,97162.00
2023-04-15T20:11:19.371Z,97164.00
2023-04-15T20:13:46.675Z,97162.00
2023-04-15T20:16:14.038Z,97169.00
2023-04-15T20:18:41.426Z,97171.00
2023-04-15T20:21:08.487Z,97173.00
2023-04-15T20:23:36.099Z,97184.00
2023-04-15T20:26:07.234Z,97185.00
2023-04-15T20:28:34.488Z,97182.00
2023-04-15T20:31:01.863Z,97178.00
2023-04-15T20:33:29.519Z,97187.00
2023-04-15T20:35:56.662Z,97179.00
2023-04-15T20:38:23.785Z,97194.00
2023-04-15T20:40:51.370Z,97185.00
2023-04-15T20:43:18.507Z,97191.00
2023-04-15T20:45:45.654Z,97193.00
2023-04-15T20:48:12.761Z,97197.00
2023-04-15T20:50:40.410Z,97192.00
2023-04-15T20:53:07.511Z,97196.00
2023-04-15T20:55:34.688Z,97201.00
2023-04-15T20:58:01.922Z,97206.00
2023-04-15T21:00:29.511Z,97206.00
2023-04-15T21:02:56.748Z,97212.00
2023-04-15T21:05:24.056Z,97212.00
2023-04-15T21:07:51.203Z,97217.00
2023-04-15T21:10:18.296Z,97214.00
2023-04-15T21:12:45.462Z,97211.00
2023-04-15T21:15:13.247Z,97220.00
2023-04-15T21:17:41.768Z,97227.00
2023-04-15T21:20:09.662Z,97219.00
2023-04-15T21:22:36.857Z,97232.00
2023-04-15T21:25:04.341Z,97232.00
2023-04-15T21:27:31.528Z,97227.00
2023-04-15T21:29:58.583Z,97231.00
2023-04-15T21:32:25.711Z,97245.00
2023-04-15T21:34:52.999Z,97243.00
2023-04-15T21:37:20.163Z,97245.00
2023-04-15T21:39:47.267Z,97240.00
2023-04-15T21:42:14.477Z,97236.00
2023-04-15T21:44:41.559Z,97234.00
2023-04-15T21:47:08.762Z,97242.00
2023-04-15T21:49:36.076Z,97244.00
2023-04-15T21:52:04.717Z,97239.00
2023-04-15T21:54:32.993Z,97247.00
2023-04-15T21:57:00.430Z,97253.00
2023-04-15T21:59:27.563Z,97259.00
2023-04-15T22:01:54.803Z,97257.00
2023-04-15T22:04:22.103Z,97253.00
2023-04-15T22:06:49.212Z,97262.00
2023-04-15T22:09:18.165Z,97264.00
2023-04-15T22:11:46.246Z,97264.00
2023-04-15T22:14:14.226Z,97270.00
2023-04-15T22:16:41.538Z,97269.00
2023-04-15T22:19:09.898Z,97272.00
2023-04-15T22:21:36.986Z,97272.00
2023-04-15T22:24:37.303Z,97273.00
2023-04-15T22:26:51.502Z,97276.00
2023-04-15T22:29:18.632Z,97276.00
2023-04-15T22:31:46.073Z,97274.00
2023-04-15T22:34:20.476Z,97280.00
2023-04-15T22:36:53.957Z,97279.00
2023-04-15T22:39:21.350Z,97286.00
2023-04-15T22:41:48.606Z,97284.00
2023-04-15T22:44:15.806Z,97291.00
2023-04-15T22:46:43.714Z,97288.00
2023-04-15T22:49:11.181Z,97293.00
2023-04-15T22:51:38.400Z,97297.00
2023-04-15T22:54:05.559Z,97292.00
2023-04-15T22:56:32.656Z,97289.00
2023-04-15T22:58:59.750Z,97303.00
2023-04-15T23:01:26.924Z,97300.00
2023-04-15T23:03:56.348Z,97303.00
2023-04-15T23:06:24.835Z,97300.00
2023-04-15T23:08:52.498Z,97305.00
2023-04-15T23:11:19.819Z,97303.00
2023-04-15T23:13:47.012Z,97311.00
2023-04-15T23:16:14.137Z,97311.00
2023-04-15T23:18:41.257Z,97299.00
2023-04-15T23:21:08.472Z,97309.00
2023-04-15T23:23:35.776Z,97305.00
2023-04-15T23:26:04.147Z,97308.00
2023-04-15T23:28:31.424Z,97297.00
2023-04-15T23:31:00.430Z,97310.00
2023-04-15T23:33:28.030Z,97316.00
2023-04-15T23:35:55.369Z,97322.00
2023-04-15T23:38:22.530Z,97321.00
2023-04-15T23:40:51.282Z,97321.00
2023-04-15T23:43:18.440Z,97314.00
2023-04-15T23:45:45.496Z,97328.00
2023-04-15T23:48:12.593Z,97328.00
2023-04-15T23:50:39.860Z,97328.00
2023-04-15T23:53:07.004Z,97331.00
2023-04-15T23:55:35.116Z,97332.00
2023-04-15T23:58:02.363Z,97334.00
